Time;durP1;ratioP1;P1;durP2;ratioP2;P2;SDS_P1;SDS_P2;PMS_P1;PMS_P2;Temp;Humidity;BMP_temperature;BMP_pressure;BME280_temperature;BME280_humidity;BME280_pressure;Samples;Min_cycle;Max_cycle;Signal;HPM_P1;HPM_P2
2021/03/22 00:01:48;;;;;;;37.08;19.73;;;;;;;;;;5004146;28;20064;-95
2021/03/22 00:04:14;;;;;;;32.15;18.80;;;;;;;;;;5021321;28;20053;-95
2021/03/22 00:06:40;;;;;;;31.58;19.48;;;;;;;;;;5021386;28;20022;-94
2021/03/22 00:09:07;;;;;;;29.80;17.98;;;;;;;;;;5021387;28;20030;-94
2021/03/22 00:11:33;;;;;;;32.28;17.42;;;;;;;;;;5003826;28;20058;-94
2021/03/22 00:13:59;;;;;;;28.25;16.20;;;;;;;;;;5021087;28;20064;-94
2021/03/22 00:16:28;;;;;;;32.53;17.10;;;;;;;;;;5003778;28;20503;-95
2021/03/22 00:18:54;;;;;;;27.17;16.23;;;;;;;;;;5021079;28;20485;-95
2021/03/22 00:21:21;;;;;;;29.80;17.08;;;;;;;;;;5003574;28;20447;-94
2021/03/22 00:23:47;;;;;;;32.65;18.48;;;;;;;;;;5004243;28;20030;-94
2021/03/22 00:26:13;;;;;;;29.13;16.92;;;;;;;;;;5021527;28;20050;-95
2021/03/22 00:28:39;;;;;;;32.75;19.58;;;;;;;;;;5005976;28;20029;-94
2021/03/22 00:31:09;;;;;;;38.83;19.63;;;;;;;;;;5006393;28;20056;-94
2021/03/22 00:33:35;;;;;;;35.83;19.20;;;;;;;;;;5017805;28;20037;-94
2021/03/22 00:36:02;;;;;;;30.50;16.63;;;;;;;;;;5022028;28;20069;-94
2021/03/22 00:41:31;;;;;;;24.85;15.40;;;;;;;;;;5020601;28;20317;-94
2021/03/22 00:43:57;;;;;;;26.00;16.05;;;;;;;;;;5004082;28;20014;-95
2021/03/22 00:46:23;;;;;;;26.77;16.20;;;;;;;;;;5021909;28;20029;-94
2021/03/22 00:48:50;;;;;;;26.05;15.50;;;;;;;;;;5022934;28;20067;-93
2021/03/22 00:51:16;;;;;;;29.13;16.17;;;;;;;;;;5022887;28;20505;-94
2021/03/22 00:53:42;;;;;;;23.73;15.32;;;;;;;;;;5022146;28;20030;-94
2021/03/22 00:56:08;;;;;;;26.75;15.70;;;;;;;;;;5005095;28;20424;-95
2021/03/22 00:58:34;;;;;;;27.48;16.58;;;;;;;;;;5021397;28;20117;-94
2021/03/22 01:01:00;;;;;;;29.35;16.17;;;;;;;;;;5020988;28;20026;-94
2021/03/22 01:03:31;;;;;;;29.98;17.23;;;;;;;;;;5020704;28;20404;-93
2021/03/22 01:05:58;;;;;;;34.78;18.23;;;;;;;;;;5003677;28;20030;-93
2021/03/22 01:11:27;;;;;;;31.17;16.48;;;;;;;;;;5022454;28;20037;-93
2021/03/22 01:13:58;;;;;;;33.50;17.17;;;;;;;;;;5021988;28;20033;-93
2021/03/22 01:16:27;;;;;;;27.02;16.17;;;;;;;;;;5004713;28;20029;-93
2021/03/22 01:18:54;;;;;;;30.58;17.52;;;;;;;;;;5021855;28;20033;-94
2021/03/22 01:21:40;;;;;;;31.75;17.60;;;;;;;;;;5003718;28;20037;-94
2021/03/22 01:24:09;;;;;;;25.98;15.95;;;;;;;;;;5002073;28;20048;-93
2021/03/22 01:26:36;;;;;;;29.25;16.55;;;;;;;;;;5019597;28;20046;-93
2021/03/22 01:29:05;;;;;;;23.75;15.75;;;;;;;;;;5002330;28;20424;-93
2021/03/22 01:31:31;;;;;;;29.48;16.92;;;;;;;;;;5020437;28;20032;-94
2021/03/22 01:33:57;;;;;;;26.20;16.92;;;;;;;;;;5005953;28;20022;-95
2021/03/22 01:36:28;;;;;;;34.38;17.27;;;;;;;;;;5005134;28;20030;-94
2021/03/22 01:38:56;;;;;;;29.25;17.55;;;;;;;;;;5004398;28;20119;-94
2021/03/22 01:41:25;;;;;;;29.85;17.65;;;;;;;;;;5021450;28;20026;-95
2021/03/22 01:43:51;;;;;;;39.88;20.73;;;;;;;;;;5021542;28;20014;-94
2021/03/22 01:46:17;;;;;;;33.53;19.10;;;;;;;;;;5003667;28;20022;-94
2021/03/22 01:48:44;;;;;;;35.20;21.27;;;;;;;;;;5021291;28;20320;-94
2021/03/22 01:51:10;;;;;;;36.97;21.95;;;;;;;;;;5002926;28;20038;-94
2021/03/22 01:53:36;;;;;;;36.40;21.23;;;;;;;;;;5021586;28;20025;-95
2021/03/22 01:56:32;;;;;;;40.75;22.63;;;;;;;;;;5022782;28;20052;-95
2021/03/22 01:58:58;;;;;;;36.92;20.83;;;;;;;;;;4906799;28;20451;-94
2021/03/22 02:01:26;;;;;;;40.17;22.13;;;;;;;;;;4922809;29;20028;-94
2021/03/22 02:03:53;;;;;;;36.97;21.23;;;;;;;;;;4923267;29;20059;-94
2021/03/22 02:06:19;;;;;;;35.80;20.92;;;;;;;;;;4923199;29;20024;-94
2021/03/22 02:08:46;;;;;;;35.50;22.00;;;;;;;;;;4905829;29;20036;-93
2021/03/22 02:11:33;;;;;;;36.35;20.17;;;;;;;;;;4921237;29;20064;-93
2021/03/22 02:14:01;;;;;;;34.33;19.88;;;;;;;;;;4921647;29;20036;-93
2021/03/22 02:16:47;;;;;;;35.63;20.23;;;;;;;;;;4905354;29;20447;-94
2021/03/22 02:19:13;;;;;;;33.63;20.05;;;;;;;;;;4865220;29;20041;-94
2021/03/22 02:21:39;;;;;;;34.60;20.85;;;;;;;;;;4849539;29;20042;-93
2021/03/22 02:24:08;;;;;;;35.25;19.88;;;;;;;;;;4849861;29;20052;-94
2021/03/22 02:26:37;;;;;;;32.50;19.55;;;;;;;;;;4865148;29;20054;-94
2021/03/22 02:29:09;;;;;;;34.17;20.20;;;;;;;;;;4864814;29;20037;-94
2021/03/22 02:31:38;;;;;;;31.98;18.67;;;;;;;;;;4864563;29;20441;-93
2021/03/22 02:34:12;;;;;;;33.10;17.08;;;;;;;;;;4864248;29;20437;-94
2021/03/22 02:36:38;;;;;;;30.75;19.20;;;;;;;;;;4920304;29;20330;-93
2021/03/22 02:42:08;;;;;;;30.67;18.40;;;;;;;;;;4920644;29;20032;-94
2021/03/22 02:44:36;;;;;;;32.05;18.40;;;;;;;;;;4904456;29;20132;-94
2021/03/22 02:47:04;;;;;;;30.63;17.95;;;;;;;;;;4920207;29;20065;-93
2021/03/22 02:49:32;;;;;;;29.80;17.33;;;;;;;;;;4904282;29;20040;-93
2021/03/22 02:52:04;;;;;;;27.02;16.05;;;;;;;;;;4920025;29;20031;-93
2021/03/22 02:54:42;;;;;;;26.42;16.17;;;;;;;;;;4920185;29;20040;-93
2021/03/22 02:57:13;;;;;;;29.67;16.70;;;;;;;;;;5003694;28;20030;-94
2021/03/22 02:59:50;;;;;;;25.33;14.77;;;;;;;;;;5018304;28;20025;-93
2021/03/22 03:02:16;;;;;;;22.83;14.57;;;;;;;;;;5000839;28;20036;-93
2021/03/22 03:04:43;;;;;;;23.88;14.63;;;;;;;;;;5017218;28;20064;-93
2021/03/22 03:07:11;;;;;;;23.83;14.15;;;;;;;;;;5000709;28;20025;-92
2021/03/22 03:09:38;;;;;;;24.60;14.02;;;;;;;;;;5017748;28;20075;-93
2021/03/22 03:12:14;;;;;;;24.83;13.13;;;;;;;;;;5018599;28;20052;-95
2021/03/22 03:14:42;;;;;;;20.30;13.20;;;;;;;;;;5019967;28;20344;-95
2021/03/22 03:17:08;;;;;;;20.90;13.43;;;;;;;;;;5019537;28;20072;-94
2021/03/22 03:19:34;;;;;;;20.38;12.95;;;;;;;;;;5000879;28;20033;-93
2021/03/22 03:22:00;;;;;;;20.55;12.43;;;;;;;;;;5000338;28;20479;-93
2021/03/22 03:24:51;;;;;;;19.25;12.25;;;;;;;;;;5017793;28;20042;-94
2021/03/22 03:27:17;;;;;;;19.73;12.68;;;;;;;;;;5000267;28;20065;-94
2021/03/22 03:29:44;;;;;;;20.27;12.38;;;;;;;;;;5017685;28;20029;-92
2021/03/22 03:32:14;;;;;;;17.63;11.82;;;;;;;;;;5017731;28;20042;-93
2021/03/22 03:34:40;;;;;;;20.85;12.85;;;;;;;;;;5017918;28;20026;-93
2021/03/22 03:37:07;;;;;;;18.73;12.30;;;;;;;;;;5000338;28;20040;-94
2021/03/22 03:39:52;;;;;;;20.65;13.00;;;;;;;;;;5000560;28;20022;-93
2021/03/22 03:42:18;;;;;;;19.77;12.98;;;;;;;;;;5018020;28;20293;-93
2021/03/22 03:44:44;;;;;;;20.73;13.25;;;;;;;;;;5017931;28;20026;-93
2021/03/22 03:47:10;;;;;;;21.15;14.23;;;;;;;;;;5000324;28;20022;-92
2021/03/22 03:49:36;;;;;;;23.13;14.52;;;;;;;;;;5000320;28;20037;-92
2021/03/22 03:52:04;;;;;;;27.92;17.02;;;;;;;;;;5000545;28;20034;-92
2021/03/22 03:57:34;;;;;;;26.35;16.25;;;;;;;;;;5017688;28;20123;-93
2021/03/22 04:00:00;;;;;;;27.33;16.00;;;;;;;;;;4999870;28;20037;-92
2021/03/22 04:02:26;;;;;;;26.67;16.05;;;;;;;;;;5000554;28;20041;-93
2021/03/22 04:04:52;;;;;;;25.58;15.48;;;;;;;;;;5017976;28;20321;-95
2021/03/22 04:07:18;;;;;;;21.52;14.35;;;;;;;;;;5000363;28;20057;-93
2021/03/22 04:12:48;;;;;;;24.05;15.32;;;;;;;;;;5017734;28;20132;-94
2021/03/22 04:15:16;;;;;;;30.20;17.70;;;;;;;;;;4999954;28;20029;-94
2021/03/22 04:17:42;;;;;;;26.15;17.08;;;;;;;;;;5003314;28;20065;-93
2021/03/22 04:20:09;;;;;;;29.60;18.42;;;;;;;;;;5004933;28;20022;-93
2021/03/22 04:22:35;;;;;;;27.23;17.50;;;;;;;;;;5004584;28;20302;-93
2021/03/22 04:25:01;;;;;;;26.25;16.60;;;;;;;;;;5021851;28;20026;-94
2021/03/22 04:27:27;;;;;;;26.73;16.75;;;;;;;;;;5021353;28;20109;-94
2021/03/22 04:29:53;;;;;;;31.02;17.80;;;;;;;;;;5004495;28;20029;-93
2021/03/22 04:32:19;;;;;;;35.75;19.67;;;;;;;;;;5021870;28;20030;-93
2021/03/22 04:34:45;;;;;;;35.67;19.52;;;;;;;;;;5021780;28;20026;-94
2021/03/22 04:37:11;;;;;;;39.95;20.52;;;;;;;;;;5003940;28;20053;-93
2021/03/22 04:39:37;;;;;;;39.38;19.83;;;;;;;;;;5020826;28;20017;-94
2021/03/22 04:42:04;;;;;;;34.72;20.08;;;;;;;;;;5020614;28;20018;-93
2021/03/22 04:44:30;;;;;;;35.22;22.92;;;;;;;;;;5003179;28;20030;-93
2021/03/22 04:46:56;;;;;;;39.05;21.77;;;;;;;;;;5020772;28;20116;-94
2021/03/22 04:49:22;;;;;;;34.67;20.83;;;;;;;;;;5020871;28;20072;-94
2021/03/22 04:51:49;;;;;;;31.30;19.40;;;;;;;;;;5002912;28;20120;-93
2021/03/22 04:54:15;;;;;;;27.92;17.38;;;;;;;;;;5020346;28;20038;-93
2021/03/22 04:56:41;;;;;;;25.55;17.13;;;;;;;;;;5002573;28;20034;-94
2021/03/22 04:59:07;;;;;;;28.77;18.25;;;;;;;;;;5020374;28;20030;-95
2021/03/22 05:01:33;;;;;;;27.65;17.92;;;;;;;;;;5003216;28;20026;-94
2021/03/22 05:03:59;;;;;;;30.60;19.23;;;;;;;;;;5020543;28;20029;-94
2021/03/22 05:06:25;;;;;;;34.78;19.73;;;;;;;;;;5020637;28;20018;-93
2021/03/22 05:08:51;;;;;;;35.67;20.10;;;;;;;;;;5020306;28;20025;-93
2021/03/22 05:11:18;;;;;;;35.70;20.90;;;;;;;;;;5020142;28;20060;-94
2021/03/22 05:13:45;;;;;;;38.53;22.13;;;;;;;;;;5002774;28;20025;-93
2021/03/22 05:16:14;;;;;;;35.75;21.30;;;;;;;;;;5019801;28;20026;-93
2021/03/22 05:18:40;;;;;;;38.92;23.10;;;;;;;;;;5020082;28;20108;-93
2021/03/22 05:21:07;;;;;;;38.97;23.00;;;;;;;;;;5002482;28;20029;-93
2021/03/22 05:23:34;;;;;;;40.95;23.90;;;;;;;;;;5002157;28;20030;-93
2021/03/22 05:29:22;;;;;;;68.90;31.85;;;;;;;;;;4980369;28;20058;-94
2021/03/22 05:31:49;;;;;;;64.65;32.00;;;;;;;;;;4979796;28;20027;-94
2021/03/22 05:34:15;;;;;;;68.32;32.17;;;;;;;;;;4980828;28;20119;-95
2021/03/22 05:36:41;;;;;;;68.03;31.77;;;;;;;;;;4980655;28;20031;-92
2021/03/22 05:39:07;;;;;;;64.03;30.80;;;;;;;;;;4980658;28;20023;-92
2021/03/22 05:41:39;;;;;;;72.97;33.13;;;;;;;;;;4980618;28;20041;-93
2021/03/22 05:44:19;;;;;;;62.08;30.65;;;;;;;;;;4980244;28;20050;-92
2021/03/22 05:46:57;;;;;;;46.53;26.42;;;;;;;;;;4980385;28;20027;-92
2021/03/22 05:49:43;;;;;;;56.63;28.92;;;;;;;;;;4979369;28;20385;-94
2021/03/22 05:52:20;;;;;;;75.22;33.28;;;;;;;;;;4980357;28;20019;-93
2021/03/22 05:54:58;;;;;;;75.57;32.60;;;;;;;;;;4980362;28;20058;-91
2021/03/22 05:57:33;;;;;;;72.63;33.17;;;;;;;;;;4980083;28;20105;-92
2021/03/22 06:00:13;;;;;;;63.33;33.70;;;;;;;;;;4980005;28;20023;-93
2021/03/22 06:02:52;;;;;;;53.47;30.27;;;;;;;;;;4979064;28;20410;-92
2021/03/22 06:05:33;;;;;;;47.35;27.00;;;;;;;;;;4978900;28;20097;-92
2021/03/22 06:08:02;;;;;;;40.85;24.75;;;;;;;;;;4978889;28;20073;-93
2021/03/22 06:10:31;;;;;;;48.50;29.15;;;;;;;;;;4978822;28;20031;-93
2021/03/22 06:12:59;;;;;;;50.25;28.15;;;;;;;;;;4979796;28;20023;-94
2021/03/22 06:15:33;;;;;;;51.63;29.13;;;;;;;;;;4979698;28;20046;-94
2021/03/22 06:18:03;;;;;;;62.63;37.78;;;;;;;;;;4980676;28;20066;-94
2021/03/22 06:20:34;;;;;;;57.72;37.08;;;;;;;;;;4979387;28;20030;-94
2021/03/22 06:23:05;;;;;;;52.80;35.58;;;;;;;;;;4978625;28;20035;-93
2021/03/22 06:25:33;;;;;;;60.10;34.28;;;;;;;;;;4978572;28;20019;-93
2021/03/22 06:28:14;;;;;;;62.05;35.05;;;;;;;;;;4987683;28;20384;-92
2021/03/22 06:30:43;;;;;;;73.82;37.03;;;;;;;;;;4999214;28;20049;-92
2021/03/22 06:33:17;;;;;;;52.78;29.83;;;;;;;;;;4998843;28;20118;-94
2021/03/22 06:35:43;;;;;;;68.05;35.28;;;;;;;;;;4998044;28;20119;-93
2021/03/22 06:38:09;;;;;;;62.15;32.25;;;;;;;;;;4998744;28;20033;-93
2021/03/22 06:40:35;;;;;;;63.03;33.97;;;;;;;;;;4999193;28;20033;-93
2021/03/22 06:43:08;;;;;;;50.22;29.60;;;;;;;;;;4998685;28;20015;-93
2021/03/22 06:45:34;;;;;;;52.30;29.40;;;;;;;;;;4997965;28;20034;-95
2021/03/22 06:48:14;;;;;;;49.92;28.02;;;;;;;;;;4998645;28;20085;-93
2021/03/22 06:50:40;;;;;;;56.60;33.53;;;;;;;;;;4997385;28;20425;-93
2021/03/22 06:53:06;;;;;;;102.80;58.33;;;;;;;;;;4998599;28;20042;-94
2021/03/22 06:55:34;;;;;;;53.60;33.05;;;;;;;;;;4997562;28;20026;-94
2021/03/22 06:58:00;;;;;;;38.65;23.48;;;;;;;;;;4998732;28;20037;-94
2021/03/22 07:00:28;;;;;;;36.10;22.23;;;;;;;;;;4998527;28;20022;-92
2021/03/22 07:02:59;;;;;;;29.95;18.38;;;;;;;;;;4997605;28;20069;-93
2021/03/22 07:05:26;;;;;;;34.33;19.73;;;;;;;;;;4998239;28;20019;-92
2021/03/22 07:07:52;;;;;;;35.10;19.98;;;;;;;;;;4998524;28;20438;-93
2021/03/22 07:10:19;;;;;;;32.15;21.63;;;;;;;;;;4997246;28;20413;-92
2021/03/22 07:12:45;;;;;;;30.67;23.38;;;;;;;;;;4997392;28;20421;-91
2021/03/22 07:15:23;;;;;;;29.27;20.73;;;;;;;;;;4998168;28;20034;-91
2021/03/22 07:18:08;;;;;;;29.38;19.13;;;;;;;;;;4998478;28;20086;-91
2021/03/22 07:20:34;;;;;;;31.38;19.30;;;;;;;;;;4998197;28;20113;-91
2021/03/22 07:23:16;;;;;;;30.58;18.60;;;;;;;;;;4997161;28;20086;-93
2021/03/22 07:25:46;;;;;;;31.15;17.85;;;;;;;;;;4997414;28;20316;-93
2021/03/22 07:28:18;;;;;;;33.58;18.80;;;;;;;;;;4996896;28;20046;-92
2021/03/22 07:30:53;;;;;;;29.35;17.35;;;;;;;;;;4998009;28;20035;-92
2021/03/22 07:33:42;;;;;;;30.35;19.20;;;;;;;;;;4997124;28;20409;-93
2021/03/22 07:36:15;;;;;;;35.63;21.45;;;;;;;;;;4941321;29;20073;-79
2021/03/22 07:38:50;;;;;;;31.60;22.92;;;;;;;;;;4956817;29;20043;-86
2021/03/22 07:41:25;;;;;;;42.92;30.02;;;;;;;;;;4957624;29;20058;-84
2021/03/22 07:43:54;;;;;;;43.22;27.83;;;;;;;;;;4941222;29;20020;-84
2021/03/22 07:46:26;;;;;;;43.42;29.83;;;;;;;;;;4940865;28;20027;-84
2021/03/22 07:49:05;;;;;;;33.40;20.10;;;;;;;;;;4957241;29;20047;-81
2021/03/22 07:51:49;;;;;;;30.48;18.98;;;;;;;;;;4958617;28;20529;-81
2021/03/22 07:54:40;;;;;;;36.63;22.17;;;;;;;;;;4944669;29;20081;-81
2021/03/22 07:57:09;;;;;;;29.38;18.52;;;;;;;;;;4960657;29;20031;-81
2021/03/22 07:59:54;;;;;;;35.45;19.20;;;;;;;;;;4960500;28;20031;-80
2021/03/22 08:02:35;;;;;;;29.92;19.40;;;;;;;;;;4960593;29;20023;-80
2021/03/22 08:05:04;;;;;;;32.50;19.45;;;;;;;;;;4944561;29;20027;-81
2021/03/22 08:07:49;;;;;;;129.30;48.33;;;;;;;;;;4960303;29;20473;-80
2021/03/22 08:10:35;;;;;;;70.55;33.63;;;;;;;;;;4960463;29;20035;-80
2021/03/22 08:13:07;;;;;;;103.30;48.42;;;;;;;;;;4915062;29;20039;-82
2021/03/22 08:15:51;;;;;;;59.42;34.40;;;;;;;;;;4925231;29;20395;-82
2021/03/22 08:18:18;;;;;;;35.15;22.20;;;;;;;;;;4941291;29;20035;-81
2021/03/22 08:21:00;;;;;;;35.92;23.35;;;;;;;;;;4924912;29;20132;-81
2021/03/22 08:23:27;;;;;;;;;;;;;;;;;;4941290;29;20051;-82
2021/03/22 08:25:54;;;;;;;41.72;26.90;;;;;;;;;;4924953;29;19950;-80
2021/03/22 08:28:25;;;;;;;35.40;23.42;;;;;;;;;;4936864;29;20062;-81
2021/03/22 08:31:09;;;;;;;40.33;23.33;;;;;;;;;;4959962;29;20334;-82
2021/03/22 08:33:38;;;;;;;32.45;20.83;;;;;;;;;;4959760;29;20318;-80
2021/03/22 08:36:05;;;;;;;33.38;22.20;;;;;;;;;;4959827;29;20036;-80
2021/03/22 08:38:41;;;;;;;27.48;18.50;;;;;;;;;;4959840;29;20422;-80
2021/03/22 08:41:18;;;;;;;28.50;19.77;;;;;;;;;;4959804;28;20441;-81
2021/03/22 08:43:52;;;;;;;29.30;19.60;;;;;;;;;;4959766;29;20031;-81
2021/03/22 08:46:18;;;;;;;26.85;19.30;;;;;;;;;;4959295;29;20058;-81
2021/03/22 08:48:45;;;;;;;26.58;19.35;;;;;;;;;;4959722;29;20118;-84
2021/03/22 08:51:27;;;;;;;28.10;19.83;;;;;;;;;;5017375;28;20332;-79
2021/03/22 08:53:54;;;;;;;29.38;20.02;;;;;;;;;;5019804;28;20035;-80
2021/03/22 08:56:37;;;;;;;29.63;20.45;;;;;;;;;;5019657;28;20033;-80
2021/03/22 08:59:03;;;;;;;;;;;;;;;;;;5020204;28;20375;-81
2021/03/22 09:01:41;;;;;;;95.70;36.90;;;;;;;;;;5019493;28;19952;-80
2021/03/22 09:04:22;;;;;;;47.88;27.48;;;;;;;;;;5001406;28;20022;-81
2021/03/22 09:07:00;;;;;;;37.55;23.45;;;;;;;;;;5001980;28;20014;-80
2021/03/22 09:09:29;;;;;;;37.10;22.60;;;;;;;;;;5019279;28;20030;-78
2021/03/22 09:11:55;;;;;;;38.50;24.45;;;;;;;;;;5019412;28;20025;-79
2021/03/22 09:14:28;;;;;;;34.42;24.33;;;;;;;;;;5019335;28;20022;-79
2021/03/22 09:16:54;;;;;;;31.85;22.20;;;;;;;;;;5018981;28;20121;-79
2021/03/22 09:19:20;;;;;;;29.98;20.75;;;;;;;;;;5018988;28;20022;-79
2021/03/22 09:21:48;;;;;;;31.70;21.83;;;;;;;;;;5019384;28;20053;-79
2021/03/22 09:24:50;;;;;;;36.47;24.42;;;;;;;;;;5001837;28;20073;-79
2021/03/22 09:27:16;;;;;;;32.63;22.10;;;;;;;;;;4904884;29;20056;-79
2021/03/22 09:29:57;;;;;;;33.85;23.38;;;;;;;;;;4920608;29;20047;-79
2021/03/22 09:32:29;;;;;;;31.70;22.60;;;;;;;;;;4920677;29;20040;-79
2021/03/22 09:35:27;;;;;;;39.80;24.13;;;;;;;;;;4920639;29;20036;-79
2021/03/22 09:38:02;;;;;;;33.58;23.08;;;;;;;;;;4920409;29;20032;-78
2021/03/22 09:40:29;;;;;;;34.58;23.48;;;;;;;;;;4920335;29;20035;-79
2021/03/22 09:43:03;;;;;;;41.38;25.98;;;;;;;;;;4920561;29;20076;-89
2021/03/22 09:45:30;;;;;;;29.05;21.50;;;;;;;;;;4920296;29;20029;-78
2021/03/22 09:48:05;;;;;;;31.52;21.88;;;;;;;;;;4920428;29;20051;-78
2021/03/22 09:50:33;;;;;;;39.22;24.98;;;;;;;;;;4920231;29;20056;-79
2021/03/22 09:53:11;;;;;;;38.25;25.08;;;;;;;;;;4904482;29;20031;-79
2021/03/22 09:55:49;;;;;;;38.38;24.55;;;;;;;;;;4904386;29;20502;-79
2021/03/22 09:58:26;;;;;;;38.80;24.85;;;;;;;;;;4920109;29;20031;-79
2021/03/22 10:01:00;;;;;;;51.42;32.28;;;;;;;;;;4955713;28;20104;-79
2021/03/22 10:03:26;;;;;;;38.20;25.25;;;;;;;;;;5018373;28;20443;-79
2021/03/22 10:05:52;;;;;;;36.40;23.58;;;;;;;;;;5018251;28;20025;-79
2021/03/22 10:08:38;;;;;;;41.97;25.70;;;;;;;;;;5018529;28;20025;-79
2021/03/22 10:11:16;;;;;;;39.38;24.10;;;;;;;;;;5018270;28;20029;-79
2021/03/22 10:13:44;;;;;;;52.25;29.40;;;;;;;;;;5000206;28;20042;-79
2021/03/22 10:16:25;;;;;;;42.25;27.38;;;;;;;;;;5000631;28;20025;-79
2021/03/22 10:18:59;;;;;;;39.95;27.35;;;;;;;;;;5018321;28;20030;-79
2021/03/22 10:21:30;;;;;;;37.95;25.45;;;;;;;;;;5018407;28;20025;-79
2021/03/22 10:24:05;;;;;;;38.97;26.60;;;;;;;;;;5018210;28;20077;-79
2021/03/22 10:26:39;;;;;;;39.63;26.13;;;;;;;;;;5017879;28;20030;-79
2021/03/22 10:29:11;;;;;;;39.08;26.90;;;;;;;;;;5000363;28;20133;-78
2021/03/22 10:31:38;;;;;;;50.03;28.25;;;;;;;;;;5017868;28;20467;-79
2021/03/22 10:34:04;;;;;;;46.97;30.52;;;;;;;;;;5000435;28;20324;-80
2021/03/22 10:36:30;;;;;;;42.00;28.05;;;;;;;;;;5017816;28;20030;-79
2021/03/22 10:38:57;;;;;;;43.53;28.25;;;;;;;;;;5017840;28;20029;-80
2021/03/22 10:41:35;;;;;;;58.35;35.20;;;;;;;;;;5017792;28;20022;-80
2021/03/22 10:44:20;;;;;;;74.25;41.72;;;;;;;;;;5017738;28;20109;-80
2021/03/22 10:46:46;;;;;;;57.90;36.50;;;;;;;;;;5017927;28;20054;-78
2021/03/22 10:49:22;;;;;;;54.03;32.60;;;;;;;;;;4999849;28;20030;-79
2021/03/22 10:51:51;;;;;;;53.38;34.22;;;;;;;;;;5017712;28;20037;-80
2021/03/22 10:54:21;;;;;;;47.90;31.48;;;;;;;;;;5017798;28;20109;-79
2021/03/22 10:56:54;;;;;;;43.17;28.83;;;;;;;;;;5017642;28;20079;-79
2021/03/22 10:59:24;;;;;;;45.42;29.80;;;;;;;;;;5017528;28;20036;-79
2021/03/22 11:01:52;;;;;;;41.60;28.23;;;;;;;;;;5017564;28;20025;-79
2021/03/22 11:04:20;;;;;;;44.10;28.48;;;;;;;;;;5017429;28;20030;-79
2021/03/22 11:06:47;;;;;;;57.35;36.95;;;;;;;;;;5017483;28;20128;-80
2021/03/22 11:09:21;;;;;;;41.80;28.05;;;;;;;;;;5017437;28;20033;-80
2021/03/22 11:11:48;;;;;;;40.65;26.67;;;;;;;;;;5017462;28;20026;-79
2021/03/22 11:14:16;;;;;;;40.83;27.92;;;;;;;;;;5017525;28;20102;-79
2021/03/22 11:16:43;;;;;;;39.42;26.60;;;;;;;;;;5017171;28;20105;-79
2021/03/22 11:19:23;;;;;;;43.85;29.02;;;;;;;;;;4999712;28;20068;-79
2021/03/22 11:21:50;;;;;;;38.13;26.52;;;;;;;;;;5017368;28;20026;-79
2021/03/22 11:24:32;;;;;;;41.17;28.40;;;;;;;;;;5017169;28;20464;-79
2021/03/22 11:26:59;;;;;;;39.63;27.27;;;;;;;;;;5016358;28;20127;-79
2021/03/22 11:29:25;;;;;;;53.25;33.53;;;;;;;;;;4999669;28;20022;-79
2021/03/22 11:32:18;;;;;;;41.28;27.13;;;;;;;;;;5017140;28;20060;-80
2021/03/22 11:34:44;;;;;;;36.85;24.45;;;;;;;;;;5012804;28;20353;-79
2021/03/22 11:37:22;;;;;;;41.95;26.58;;;;;;;;;;4999745;28;20025;-79
2021/03/22 11:40:08;;;;;;;42.30;25.95;;;;;;;;;;5016814;28;20052;-80
2021/03/22 11:42:36;;;;;;;40.33;25.27;;;;;;;;;;4918690;29;20040;-79
2021/03/22 11:45:22;;;;;;;34.22;24.08;;;;;;;;;;4918717;29;20029;-80
2021/03/22 11:47:49;;;;;;;36.22;25.20;;;;;;;;;;4918735;29;20127;-79
2021/03/22 11:50:30;;;;;;;46.55;29.05;;;;;;;;;;4918618;29;20044;-79
2021/03/22 11:53:05;;;;;;;44.15;28.08;;;;;;;;;;4918607;29;20462;-79
2021/03/22 11:55:39;;;;;;;30.15;22.15;;;;;;;;;;4918643;29;20035;-80
2021/03/22 11:58:05;;;;;;;38.75;24.92;;;;;;;;;;4902757;29;20036;-79
2021/03/22 12:00:34;;;;;;;34.15;24.10;;;;;;;;;;4918572;29;20037;-80
2021/03/22 12:03:02;;;;;;;35.53;23.58;;;;;;;;;;4918628;29;20079;-80
2021/03/22 12:05:37;;;;;;;32.45;23.10;;;;;;;;;;4918529;29;20060;-80
2021/03/22 12:08:22;;;;;;;32.28;23.15;;;;;;;;;;4918630;29;20055;-79
2021/03/22 12:10:48;;;;;;;30.35;21.10;;;;;;;;;;4902672;29;20127;-79
2021/03/22 12:13:14;;;;;;;29.08;20.63;;;;;;;;;;4902684;29;20040;-80
2021/03/22 12:15:40;;;;;;;34.58;20.85;;;;;;;;;;4918338;29;20431;-79
2021/03/22 12:18:07;;;;;;;31.17;21.05;;;;;;;;;;4918308;29;20373;-80
2021/03/22 12:20:35;;;;;;;31.65;22.27;;;;;;;;;;5005204;28;20038;-79
2021/03/22 12:23:01;;;;;;;30.70;19.75;;;;;;;;;;5016580;28;20032;-80
2021/03/22 12:25:28;;;;;;;29.98;18.88;;;;;;;;;;5016600;28;20340;-80
2021/03/22 12:27:55;;;;;;;30.48;18.85;;;;;;;;;;5016441;28;20038;-80
2021/03/22 12:30:25;;;;;;;29.83;18.52;;;;;;;;;;5016035;28;20059;-79
2021/03/22 12:32:51;;;;;;;29.02;18.25;;;;;;;;;;5016807;28;20355;-86
2021/03/22 12:35:18;;;;;;;29.70;19.70;;;;;;;;;;5016316;28;20041;-79
2021/03/22 12:37:44;;;;;;;31.08;19.85;;;;;;;;;;5018687;28;20029;-79
2021/03/22 12:40:12;;;;;;;28.90;19.70;;;;;;;;;;5019939;28;20018;-79
2021/03/22 12:42:39;;;;;;;29.08;19.17;;;;;;;;;;5020139;28;20052;-78
2021/03/22 12:45:05;;;;;;;30.25;18.83;;;;;;;;;;5020162;28;20057;-87
2021/03/22 12:47:33;;;;;;;30.88;20.15;;;;;;;;;;5002578;28;20088;-84
2021/03/22 12:49:59;;;;;;;26.75;17.48;;;;;;;;;;5019854;28;20025;-84
2021/03/22 12:52:25;;;;;;;25.23;16.67;;;;;;;;;;5019904;28;20076;-83
2021/03/22 12:54:52;;;;;;;27.10;17.23;;;;;;;;;;5002163;28;20061;-84
2021/03/22 12:57:19;;;;;;;25.30;17.63;;;;;;;;;;5002566;28;20026;-83
2021/03/22 12:59:45;;;;;;;24.98;17.00;;;;;;;;;;5019780;28;20408;-83
2021/03/22 13:02:20;;;;;;;31.02;19.23;;;;;;;;;;5020008;28;20022;-83
2021/03/22 13:04:46;;;;;;;28.15;18.33;;;;;;;;;;5019865;28;20045;-83
2021/03/22 13:07:13;;;;;;;24.67;16.20;;;;;;;;;;5002348;28;20022;-83
2021/03/22 13:09:39;;;;;;;21.85;15.20;;;;;;;;;;5019715;28;20321;-84
2021/03/22 13:12:08;;;;;;;20.77;14.18;;;;;;;;;;5019551;28;20018;-84
2021/03/22 13:14:35;;;;;;;22.40;14.57;;;;;;;;;;5019315;28;20028;-84
2021/03/22 13:17:01;;;;;;;18.55;13.73;;;;;;;;;;5019536;28;20026;-84
2021/03/22 13:19:27;;;;;;;19.27;13.77;;;;;;;;;;5019654;28;20032;-83
2021/03/22 13:21:53;;;;;;;21.65;14.20;;;;;;;;;;5019414;28;20036;-84
2021/03/22 13:24:21;;;;;;;21.40;14.27;;;;;;;;;;5019328;28;20056;-84
2021/03/22 13:26:47;;;;;;;20.27;13.40;;;;;;;;;;5001809;28;20081;-84
2021/03/22 13:29:13;;;;;;;20.33;13.15;;;;;;;;;;5019197;28;20053;-85
2021/03/22 13:31:41;;;;;;;22.58;14.80;;;;;;;;;;5019280;28;20026;-84
2021/03/22 13:34:07;;;;;;;25.92;14.95;;;;;;;;;;5019198;28;20030;-85
2021/03/22 13:36:33;;;;;;;22.10;13.93;;;;;;;;;;5019251;28;20110;-83
2021/03/22 13:38:59;;;;;;;27.45;15.30;;;;;;;;;;5001471;28;20037;-84
2021/03/22 13:41:33;;;;;;;23.63;14.98;;;;;;;;;;5019151;28;20064;-85
2021/03/22 13:44:02;;;;;;;25.00;15.60;;;;;;;;;;5001402;28;20030;-85
2021/03/22 13:46:28;;;;;;;25.23;16.15;;;;;;;;;;5019121;28;20026;-85
2021/03/22 13:48:54;;;;;;;24.58;16.05;;;;;;;;;;5001255;28;20076;-85
2021/03/22 13:51:22;;;;;;;27.67;17.02;;;;;;;;;;5001370;28;20037;-84
2021/03/22 13:53:48;;;;;;;29.85;17.10;;;;;;;;;;5019043;28;20030;-85
2021/03/22 13:56:14;;;;;;;32.97;20.75;;;;;;;;;;5001699;28;20519;-85
2021/03/22 13:58:40;;;;;;;48.75;27.13;;;;;;;;;;5001340;28;20515;-84
2021/03/22 14:01:06;;;;;;;41.58;26.35;;;;;;;;;;5019154;28;20408;-84
2021/03/22 14:03:32;;;;;;;37.22;24.38;;;;;;;;;;5019073;28;20113;-85
2021/03/22 14:05:58;;;;;;;39.60;26.42;;;;;;;;;;5018908;28;20022;-85
2021/03/22 14:08:26;;;;;;;37.17;22.30;;;;;;;;;;5018733;28;20030;-85
2021/03/22 14:10:52;;;;;;;29.70;18.67;;;;;;;;;;5018535;28;20050;-85
2021/03/22 14:13:19;;;;;;;31.48;21.27;;;;;;;;;;5000775;28;20069;-85
2021/03/22 14:15:46;;;;;;;34.08;21.35;;;;;;;;;;5018566;28;20092;-86
2021/03/22 14:18:14;;;;;;;32.65;20.30;;;;;;;;;;5018503;28;20030;-85
2021/03/22 14:20:40;;;;;;;40.22;22.00;;;;;;;;;;5001190;28;20363;-85
2021/03/22 14:23:07;;;;;;;32.53;19.85;;;;;;;;;;5001111;28;20029;-85
2021/03/22 14:25:33;;;;;;;28.05;18.10;;;;;;;;;;5000702;28;20463;-85
2021/03/22 14:28:00;;;;;;;27.83;17.15;;;;;;;;;;5018362;28;20188;-84
2021/03/22 14:30:29;;;;;;;28.20;18.65;;;;;;;;;;5018351;28;20068;-85
2021/03/22 14:32:55;;;;;;;27.98;17.30;;;;;;;;;;5000958;28;20439;-85
2021/03/22 14:35:23;;;;;;;30.92;18.05;;;;;;;;;;5001115;28;20025;-85
2021/03/22 14:37:49;;;;;;;29.45;17.83;;;;;;;;;;5018436;28;20029;-86
2021/03/22 14:40:16;;;;;;;25.00;14.30;;;;;;;;;;5018326;28;20097;-85
2021/03/22 14:42:42;;;;;;;24.23;14.48;;;;;;;;;;5000928;28;20121;-85
2021/03/22 14:45:09;;;;;;;26.52;14.68;;;;;;;;;;5000386;28;20042;-85
2021/03/22 14:47:35;;;;;;;25.42;16.27;;;;;;;;;;5018367;28;20037;-85
2021/03/22 14:50:01;;;;;;;21.73;12.82;;;;;;;;;;5018380;28;20063;-86
2021/03/22 14:52:27;;;;;;;25.02;13.48;;;;;;;;;;5018078;28;20037;-86
2021/03/22 14:54:53;;;;;;;28.02;16.65;;;;;;;;;;5018054;28;20080;-85